sensor_id;sensor_type;location;lat;lon;timestamp;P1;durP1;ratioP1;P2;durP2;ratioP2
49730;SDS011;35622;52.008;5.426;2023-06-14T00:00:57;4.85;;;3.00;;
49730;SDS011;35622;52.008;5.426;2023-06-14T00:03:23;5.28;;;3.22;;
49730;SDS011;35622;52.008;5.426;2023-06-14T00:05:49;4.05;;;3.17;;
49730;SDS011;35622;52.008;5.426;2023-06-14T00:08:15;4.85;;;3.20;;
49730;SDS011;35622;52.008;5.426;2023-06-14T00:10:41;6.30;;;3.30;;
49730;SDS011;35622;52.008;5.426;2023-06-14T00:13:07;4.97;;;3.42;;
49730;SDS011;35622;52.008;5.426;2023-06-14T00:15:34;4.40;;;3.05;;
49730;SDS011;35622;52.008;5.426;2023-06-14T00:18:00;3.72;;;2.85;;
49730;SDS011;35622;52.008;5.426;2023-06-14T00:20:27;4.85;;;3.20;;
49730;SDS011;35622;52.008;5.426;2023-06-14T00:22:53;4.43;;;2.78;;
49730;SDS011;35622;52.008;5.426;2023-06-14T00:25:22;4.20;;;3.03;;
49730;SDS011;35622;52.008;5.426;2023-06-14T00:27:50;4.95;;;2.83;;
49730;SDS011;35622;52.008;5.426;2023-06-14T00:30:16;5.85;;;2.90;;
49730;SDS011;35622;52.008;5.426;2023-06-14T00:32:42;4.93;;;3.35;;
49730;SDS011;35622;52.008;5.426;2023-06-14T00:35:09;5.30;;;3.08;;
49730;SDS011;35622;52.008;5.426;2023-06-14T00:37:35;3.95;;;2.85;;
49730;SDS011;35622;52.008;5.426;2023-06-14T00:40:00;5.63;;;2.88;;
49730;SDS011;35622;52.008;5.426;2023-06-14T00:42:27;4.57;;;3.25;;
49730;SDS011;35622;52.008;5.426;2023-06-14T00:44:53;5.68;;;3.00;;
49730;SDS011;35622;52.008;5.426;2023-06-14T00:47:19;4.10;;;2.83;;
49730;SDS011;35622;52.008;5.426;2023-06-14T00:49:55;6.15;;;2.88;;
49730;SDS011;35622;52.008;5.426;2023-06-14T00:52:22;5.20;;;3.08;;
49730;SDS011;35622;52.008;5.426;2023-06-14T00:54:49;5.30;;;3.20;;
49730;SDS011;35622;52.008;5.426;2023-06-14T00:57:15;4.97;;;2.70;;
49730;SDS011;35622;52.008;5.426;2023-06-14T00:59:45;4.68;;;2.90;;
49730;SDS011;35622;52.008;5.426;2023-06-14T01:02:12;4.35;;;2.95;;
49730;SDS011;35622;52.008;5.426;2023-06-14T01:04:40;5.38;;;2.83;;
49730;SDS011;35622;52.008;5.426;2023-06-14T01:12:44;4.68;;;3.30;;
49730;SDS011;35622;52.008;5.426;2023-06-14T01:15:29;4.25;;;2.70;;
49730;SDS011;35622;52.008;5.426;2023-06-14T01:17:56;6.20;;;2.97;;
49730;SDS011;35622;52.008;5.426;2023-06-14T01:20:28;5.68;;;3.08;;
49730;SDS011;35622;52.008;5.426;2023-06-14T01:22:55;5.60;;;3.30;;
49730;SDS011;35622;52.008;5.426;2023-06-14T01:25:22;4.25;;;2.97;;
49730;SDS011;35622;52.008;5.426;2023-06-14T01:27:48;4.32;;;3.08;;
49730;SDS011;35622;52.008;5.426;2023-06-14T01:30:15;4.47;;;2.90;;
49730;SDS011;35622;52.008;5.426;2023-06-14T01:32:42;5.18;;;3.20;;
49730;SDS011;35622;52.008;5.426;2023-06-14T01:35:09;4.57;;;2.92;;
49730;SDS011;35622;52.008;5.426;2023-06-14T01:37:35;6.03;;;3.50;;
49730;SDS011;35622;52.008;5.426;2023-06-14T01:40:02;3.95;;;3.20;;
49730;SDS011;35622;52.008;5.426;2023-06-14T01:42:31;6.85;;;3.03;;
49730;SDS011;35622;52.008;5.426;2023-06-14T01:45:01;4.40;;;3.10;;
49730;SDS011;35622;52.008;5.426;2023-06-14T01:47:27;4.85;;;2.97;;
49730;SDS011;35622;52.008;5.426;2023-06-14T01:49:53;5.65;;;2.72;;
49730;SDS011;35622;52.008;5.426;2023-06-14T01:52:19;5.50;;;3.10;;
49730;SDS011;35622;52.008;5.426;2023-06-14T01:54:44;5.35;;;3.08;;
49730;SDS011;35622;52.008;5.426;2023-06-14T01:57:11;6.45;;;2.80;;
49730;SDS011;35622;52.008;5.426;2023-06-14T01:59:37;4.28;;;3.00;;
49730;SDS011;35622;52.008;5.426;2023-06-14T02:02:02;6.72;;;3.38;;
49730;SDS011;35622;52.008;5.426;2023-06-14T02:04:28;6.25;;;3.10;;
49730;SDS011;35622;52.008;5.426;2023-06-14T02:06:54;5.60;;;3.72;;
49730;SDS011;35622;52.008;5.426;2023-06-14T02:09:19;4.70;;;3.13;;
49730;SDS011;35622;52.008;5.426;2023-06-14T02:11:45;4.40;;;3.10;;
49730;SDS011;35622;52.008;5.426;2023-06-14T02:14:10;6.70;;;3.22;;
49730;SDS011;35622;52.008;5.426;2023-06-14T02:16:36;6.53;;;3.30;;
49730;SDS011;35622;52.008;5.426;2023-06-14T02:19:04;6.65;;;3.40;;
49730;SDS011;35622;52.008;5.426;2023-06-14T02:21:30;4.50;;;3.08;;
49730;SDS011;35622;52.008;5.426;2023-06-14T02:23:55;5.82;;;3.40;;
49730;SDS011;35622;52.008;5.426;2023-06-14T02:26:21;5.70;;;3.25;;
49730;SDS011;35622;52.008;5.426;2023-06-14T02:28:47;4.20;;;2.67;;
49730;SDS011;35622;52.008;5.426;2023-06-14T02:31:13;6.38;;;3.20;;
49730;SDS011;35622;52.008;5.426;2023-06-14T02:33:39;5.88;;;3.15;;
49730;SDS011;35622;52.008;5.426;2023-06-14T02:36:05;4.50;;;3.05;;
49730;SDS011;35622;52.008;5.426;2023-06-14T02:38:31;5.38;;;3.33;;
49730;SDS011;35622;52.008;5.426;2023-06-14T02:40:56;6.65;;;3.17;;
49730;SDS011;35622;52.008;5.426;2023-06-14T02:43:24;6.47;;;2.80;;
49730;SDS011;35622;52.008;5.426;2023-06-14T02:45:49;4.90;;;3.38;;
49730;SDS011;35622;52.008;5.426;2023-06-14T02:48:15;5.22;;;3.20;;
49730;SDS011;35622;52.008;5.426;2023-06-14T02:50:41;8.68;;;3.15;;
49730;SDS011;35622;52.008;5.426;2023-06-14T02:53:07;3.80;;;2.95;;
49730;SDS011;35622;52.008;5.426;2023-06-14T02:55:32;6.97;;;3.28;;
49730;SDS011;35622;52.008;5.426;2023-06-14T02:57:58;4.80;;;3.10;;
49730;SDS011;35622;52.008;5.426;2023-06-14T03:00:24;6.75;;;3.40;;
49730;SDS011;35622;52.008;5.426;2023-06-14T03:02:49;7.22;;;3.40;;
49730;SDS011;35622;52.008;5.426;2023-06-14T03:05:16;10.52;;;3.70;;
49730;SDS011;35622;52.008;5.426;2023-06-14T03:07:46;7.18;;;3.30;;
49730;SDS011;35622;52.008;5.426;2023-06-14T03:10:12;5.90;;;3.40;;
49730;SDS011;35622;52.008;5.426;2023-06-14T03:12:38;6.90;;;3.70;;
49730;SDS011;35622;52.008;5.426;2023-06-14T03:15:04;4.75;;;3.28;;
49730;SDS011;35622;52.008;5.426;2023-06-14T03:17:30;6.28;;;3.45;;
49730;SDS011;35622;52.008;5.426;2023-06-14T03:19:58;6.28;;;3.30;;
49730;SDS011;35622;52.008;5.426;2023-06-14T03:22:25;4.30;;;3.22;;
49730;SDS011;35622;52.008;5.426;2023-06-14T03:24:51;6.32;;;3.20;;
49730;SDS011;35622;52.008;5.426;2023-06-14T03:27:20;6.65;;;3.45;;
49730;SDS011;35622;52.008;5.426;2023-06-14T03:29:45;4.65;;;3.15;;
49730;SDS011;35622;52.008;5.426;2023-06-14T03:32:11;7.90;;;3.20;;
49730;SDS011;35622;52.008;5.426;2023-06-14T03:34:36;5.82;;;3.65;;
49730;SDS011;35622;52.008;5.426;2023-06-14T03:37:04;7.18;;;3.30;;
49730;SDS011;35622;52.008;5.426;2023-06-14T03:39:29;7.90;;;3.45;;
49730;SDS011;35622;52.008;5.426;2023-06-14T03:41:55;6.22;;;3.05;;
49730;SDS011;35622;52.008;5.426;2023-06-14T03:44:21;6.50;;;3.10;;
49730;SDS011;35622;52.008;5.426;2023-06-14T03:46:46;8.20;;;3.53;;
49730;SDS011;35622;52.008;5.426;2023-06-14T03:49:13;5.82;;;3.28;;
49730;SDS011;35622;52.008;5.426;2023-06-14T03:51:39;5.05;;;2.83;;
49730;SDS011;35622;52.008;5.426;2023-06-14T03:54:05;6.38;;;3.33;;
49730;SDS011;35622;52.008;5.426;2023-06-14T03:56:31;5.93;;;2.90;;
49730;SDS011;35622;52.008;5.426;2023-06-14T03:58:56;10.32;;;2.97;;
49730;SDS011;35622;52.008;5.426;2023-06-14T04:01:22;7.95;;;3.78;;
49730;SDS011;35622;52.008;5.426;2023-06-14T04:03:52;8.40;;;3.15;;
49730;SDS011;35622;52.008;5.426;2023-06-14T04:06:17;5.57;;;3.45;;
49730;SDS011;35622;52.008;5.426;2023-06-14T04:08:44;7.05;;;3.17;;
49730;SDS011;35622;52.008;5.426;2023-06-14T04:11:10;6.93;;;3.30;;
49730;SDS011;35622;52.008;5.426;2023-06-14T04:13:36;8.68;;;3.03;;
49730;SDS011;35622;52.008;5.426;2023-06-14T04:16:02;10.30;;;3.60;;
49730;SDS011;35622;52.008;5.426;2023-06-14T04:18:28;12.40;;;3.42;;
49730;SDS011;35622;52.008;5.426;2023-06-14T04:20:54;5.10;;;3.00;;
49730;SDS011;35622;52.008;5.426;2023-06-14T04:23:21;6.88;;;2.97;;
49730;SDS011;35622;52.008;5.426;2023-06-14T04:25:47;7.57;;;3.20;;
49730;SDS011;35622;52.008;5.426;2023-06-14T04:28:14;9.38;;;3.35;;
49730;SDS011;35622;52.008;5.426;2023-06-14T04:30:43;10.90;;;3.30;;
49730;SDS011;35622;52.008;5.426;2023-06-14T04:33:12;5.47;;;3.08;;
49730;SDS011;35622;52.008;5.426;2023-06-14T04:35:39;8.55;;;3.65;;
49730;SDS011;35622;52.008;5.426;2023-06-14T04:38:05;6.78;;;3.35;;
49730;SDS011;35622;52.008;5.426;2023-06-14T04:40:34;6.15;;;3.22;;
49730;SDS011;35622;52.008;5.426;2023-06-14T04:43:01;7.20;;;3.20;;
49730;SDS011;35622;52.008;5.426;2023-06-14T04:45:30;9.30;;;3.58;;
49730;SDS011;35622;52.008;5.426;2023-06-14T04:47:56;4.53;;;3.30;;
49730;SDS011;35622;52.008;5.426;2023-06-14T04:50:24;5.03;;;3.13;;
49730;SDS011;35622;52.008;5.426;2023-06-14T04:52:49;5.55;;;3.40;;
49730;SDS011;35622;52.008;5.426;2023-06-14T04:55:16;5.00;;;2.80;;
49730;SDS011;35622;52.008;5.426;2023-06-14T04:57:44;8.43;;;3.55;;
49730;SDS011;35622;52.008;5.426;2023-06-14T05:00:10;6.13;;;3.55;;
49730;SDS011;35622;52.008;5.426;2023-06-14T05:02:36;6.18;;;3.25;;
49730;SDS011;35622;52.008;5.426;2023-06-14T05:05:02;5.53;;;3.20;;
49730;SDS011;35622;52.008;5.426;2023-06-14T05:07:31;7.75;;;3.63;;
49730;SDS011;35622;52.008;5.426;2023-06-14T05:09:58;7.15;;;3.40;;
49730;SDS011;35622;52.008;5.426;2023-06-14T05:12:24;10.68;;;3.90;;
49730;SDS011;35622;52.008;5.426;2023-06-14T05:14:49;10.85;;;3.50;;
49730;SDS011;35622;52.008;5.426;2023-06-14T05:17:15;13.52;;;3.78;;
49730;SDS011;35622;52.008;5.426;2023-06-14T05:19:42;11.15;;;3.70;;
49730;SDS011;35622;52.008;5.426;2023-06-14T05:22:08;12.23;;;3.90;;
49730;SDS011;35622;52.008;5.426;2023-06-14T05:24:33;5.75;;;3.58;;
49730;SDS011;35622;52.008;5.426;2023-06-14T05:26:59;6.35;;;3.40;;
49730;SDS011;35622;52.008;5.426;2023-06-14T05:29:25;7.07;;;3.30;;
49730;SDS011;35622;52.008;5.426;2023-06-14T05:31:51;6.53;;;3.92;;
49730;SDS011;35622;52.008;5.426;2023-06-14T05:34:16;6.53;;;3.15;;
49730;SDS011;35622;52.008;5.426;2023-06-14T05:36:42;5.90;;;3.28;;
49730;SDS011;35622;52.008;5.426;2023-06-14T05:39:07;7.32;;;3.83;;
49730;SDS011;35622;52.008;5.426;2023-06-14T05:41:33;5.72;;;3.17;;
49730;SDS011;35622;52.008;5.426;2023-06-14T05:43:59;5.55;;;3.47;;
49730;SDS011;35622;52.008;5.426;2023-06-14T05:46:25;4.25;;;2.85;;
49730;SDS011;35622;52.008;5.426;2023-06-14T05:48:51;6.07;;;2.83;;
49730;SDS011;35622;52.008;5.426;2023-06-14T05:51:17;6.03;;;3.35;;
49730;SDS011;35622;52.008;5.426;2023-06-14T05:53:46;5.47;;;3.15;;
49730;SDS011;35622;52.008;5.426;2023-06-14T05:56:12;4.35;;;2.63;;
49730;SDS011;35622;52.008;5.426;2023-06-14T05:58:39;8.30;;;2.83;;
49730;SDS011;35622;52.008;5.426;2023-06-14T06:01:04;5.13;;;2.80;;
49730;SDS011;35622;52.008;5.426;2023-06-14T06:03:31;3.85;;;2.90;;
49730;SDS011;35622;52.008;5.426;2023-06-14T06:05:57;4.07;;;2.50;;
49730;SDS011;35622;52.008;5.426;2023-06-14T06:08:23;5.35;;;2.63;;
49730;SDS011;35622;52.008;5.426;2023-06-14T06:10:48;4.35;;;2.80;;
49730;SDS011;35622;52.008;5.426;2023-06-14T06:13:14;3.78;;;2.55;;
49730;SDS011;35622;52.008;5.426;2023-06-14T06:15:40;4.00;;;2.40;;
49730;SDS011;35622;52.008;5.426;2023-06-14T06:18:06;5.15;;;2.65;;
49730;SDS011;35622;52.008;5.426;2023-06-14T06:20:31;4.38;;;2.60;;
49730;SDS011;35622;52.008;5.426;2023-06-14T06:23:00;6.75;;;2.42;;
49730;SDS011;35622;52.008;5.426;2023-06-14T06:25:26;4.32;;;2.53;;
49730;SDS011;35622;52.008;5.426;2023-06-14T06:27:52;4.18;;;2.67;;
49730;SDS011;35622;52.008;5.426;2023-06-14T06:30:19;3.95;;;2.58;;
49730;SDS011;35622;52.008;5.426;2023-06-14T06:32:45;4.43;;;2.55;;
49730;SDS011;35622;52.008;5.426;2023-06-14T06:35:10;3.90;;;2.90;;
49730;SDS011;35622;52.008;5.426;2023-06-14T06:37:37;5.72;;;2.70;;
49730;SDS011;35622;52.008;5.426;2023-06-14T06:40:03;5.72;;;2.75;;
49730;SDS011;35622;52.008;5.426;2023-06-14T06:42:30;5.72;;;2.70;;
49730;SDS011;35622;52.008;5.426;2023-06-14T06:44:57;5.65;;;2.70;;
49730;SDS011;35622;52.008;5.426;2023-06-14T06:47:22;5.40;;;2.58;;
49730;SDS011;35622;52.008;5.426;2023-06-14T06:49:48;5.13;;;2.70;;
49730;SDS011;35622;52.008;5.426;2023-06-14T06:52:14;5.35;;;2.70;;
49730;SDS011;35622;52.008;5.426;2023-06-14T06:54:40;6.13;;;2.60;;
49730;SDS011;35622;52.008;5.426;2023-06-14T06:57:05;3.10;;;2.42;;
49730;SDS011;35622;52.008;5.426;2023-06-14T06:59:31;4.47;;;2.95;;
49730;SDS011;35622;52.008;5.426;2023-06-14T07:01:57;4.07;;;2.53;;
49730;SDS011;35622;52.008;5.426;2023-06-14T07:04:23;5.10;;;2.65;;
49730;SDS011;35622;52.008;5.426;2023-06-14T07:06:49;3.30;;;2.58;;
49730;SDS011;35622;52.008;5.426;2023-06-14T07:09:15;4.43;;;2.50;;
49730;SDS011;35622;52.008;5.426;2023-06-14T07:11:42;3.65;;;2.50;;
49730;SDS011;35622;52.008;5.426;2023-06-14T07:14:08;4.75;;;2.80;;
49730;SDS011;35622;52.008;5.426;2023-06-14T07:16:34;6.63;;;3.28;;
49730;SDS011;35622;52.008;5.426;2023-06-14T07:19:00;4.07;;;2.50;;
49730;SDS011;35622;52.008;5.426;2023-06-14T07:21:27;3.45;;;2.90;;
49730;SDS011;35622;52.008;5.426;2023-06-14T07:23:53;7.28;;;2.55;;
49730;SDS011;35622;52.008;5.426;2023-06-14T07:26:18;4.55;;;2.78;;
49730;SDS011;35622;52.008;5.426;2023-06-14T07:28:46;3.00;;;2.50;;
49730;SDS011;35622;52.008;5.426;2023-06-14T07:31:11;4.35;;;2.50;;
49730;SDS011;35622;52.008;5.426;2023-06-14T07:33:37;3.25;;;2.22;;
49730;SDS011;35622;52.008;5.426;2023-06-14T07:36:03;6.85;;;2.65;;
49730;SDS011;35622;52.008;5.426;2023-06-14T07:38:29;2.97;;;2.22;;
49730;SDS011;35622;52.008;5.426;2023-06-14T07:40:54;4.43;;;2.17;;
49730;SDS011;35622;52.008;5.426;2023-06-14T07:43:20;2.55;;;2.30;;
49730;SDS011;35622;52.008;5.426;2023-06-14T07:45:45;3.72;;;2.22;;
49730;SDS011;35622;52.008;5.426;2023-06-14T07:48:11;3.97;;;2.30;;
49730;SDS011;35622;52.008;5.426;2023-06-14T07:50:36;3.03;;;2.40;;
49730;SDS011;35622;52.008;5.426;2023-06-14T07:53:02;4.03;;;2.08;;
49730;SDS011;35622;52.008;5.426;2023-06-14T07:55:27;3.80;;;2.28;;
49730;SDS011;35622;52.008;5.426;2023-06-14T07:57:53;3.15;;;1.80;;
49730;SDS011;35622;52.008;5.426;2023-06-14T08:00:19;4.03;;;2.05;;
49730;SDS011;35622;52.008;5.426;2023-06-14T08:02:45;3.08;;;1.70;;
49730;SDS011;35622;52.008;5.426;2023-06-14T08:05:11;3.78;;;1.90;;
49730;SDS011;35622;52.008;5.426;2023-06-14T08:07:37;3.05;;;1.80;;
49730;SDS011;35622;52.008;5.426;2023-06-14T08:10:06;5.43;;;2.20;;
49730;SDS011;35622;52.008;5.426;2023-06-14T08:12:32;2.65;;;1.95;;
49730;SDS011;35622;52.008;5.426;2023-06-14T08:14:58;3.20;;;1.90;;
49730;SDS011;35622;52.008;5.426;2023-06-14T08:17:24;3.63;;;1.70;;
49730;SDS011;35622;52.008;5.426;2023-06-14T08:19:50;3.35;;;2.03;;
49730;SDS011;35622;52.008;5.426;2023-06-14T08:22:16;3.00;;;1.65;;
49730;SDS011;35622;52.008;5.426;2023-06-14T08:24:43;4.55;;;1.75;;
49730;SDS011;35622;52.008;5.426;2023-06-14T08:27:09;2.20;;;1.80;;
49730;SDS011;35622;52.008;5.426;2023-06-14T08:29:35;3.70;;;1.80;;
49730;SDS011;35622;52.008;5.426;2023-06-14T08:32:00;2.40;;;1.77;;
49730;SDS011;35622;52.008;5.426;2023-06-14T08:34:26;2.55;;;1.70;;
49730;SDS011;35622;52.008;5.426;2023-06-14T08:36:52;3.05;;;1.60;;
49730;SDS011;35622;52.008;5.426;2023-06-14T08:39:18;2.53;;;1.98;;
49730;SDS011;35622;52.008;5.426;2023-06-14T08:41:46;2.58;;;1.55;;
49730;SDS011;35622;52.008;5.426;2023-06-14T08:44:16;3.15;;;1.73;;
49730;SDS011;35622;52.008;5.426;2023-06-14T08:46:42;3.63;;;1.80;;
49730;SDS011;35622;52.008;5.426;2023-06-14T08:49:08;2.92;;;1.50;;
49730;SDS011;35622;52.008;5.426;2023-06-14T08:51:36;1.65;;;1.50;;
49730;SDS011;35622;52.008;5.426;2023-06-14T08:54:03;2.00;;;1.60;;
49730;SDS011;35622;52.008;5.426;2023-06-14T08:56:30;1.95;;;1.60;;
49730;SDS011;35622;52.008;5.426;2023-06-14T08:58:57;2.70;;;1.58;;
49730;SDS011;35622;52.008;5.426;2023-06-14T09:01:27;2.53;;;1.50;;
49730;SDS011;35622;52.008;5.426;2023-06-14T09:03:53;1.52;;;1.42;;
49730;SDS011;35622;52.008;5.426;2023-06-14T09:06:22;2.30;;;1.60;;
49730;SDS011;35622;52.008;5.426;2023-06-14T09:08:49;1.70;;;1.60;;
49730;SDS011;35622;52.008;5.426;2023-06-14T09:11:16;2.13;;;1.58;;
49730;SDS011;35622;52.008;5.426;2023-06-14T09:13:43;2.20;;;1.30;;
49730;SDS011;35622;52.008;5.426;2023-06-14T09:16:11;1.88;;;1.55;;
49730;SDS011;35622;52.008;5.426;2023-06-14T09:18:37;3.85;;;1.50;;
49730;SDS011;35622;52.008;5.426;2023-06-14T09:21:12;1.92;;;1.60;;
49730;SDS011;35622;52.008;5.426;2023-06-14T09:23:45;1.95;;;1.40;;
49730;SDS011;35622;52.008;5.426;2023-06-14T09:26:16;2.13;;;1.60;;
49730;SDS011;35622;52.008;5.426;2023-06-14T09:28:45;2.78;;;1.33;;
49730;SDS011;35622;52.008;5.426;2023-06-14T09:31:12;1.95;;;1.42;;
49730;SDS011;35622;52.008;5.426;2023-06-14T09:33:41;7.60;;;1.90;;
49730;SDS011;35622;52.008;5.426;2023-06-14T09:36:11;2.22;;;1.38;;
49730;SDS011;35622;52.008;5.426;2023-06-14T09:38:40;2.05;;;1.70;;
49730;SDS011;35622;52.008;5.426;2023-06-14T09:41:06;2.63;;;1.30;;
49730;SDS011;35622;52.008;5.426;2023-06-14T09:43:31;2.65;;;1.35;;
49730;SDS011;35622;52.008;5.426;2023-06-14T09:45:59;3.83;;;1.25;;
49730;SDS011;35622;52.008;5.426;2023-06-14T09:48:25;3.47;;;1.65;;
49730;SDS011;35622;52.008;5.426;2023-06-14T09:50:51;1.80;;;1.70;;
49730;SDS011;35622;52.008;5.426;2023-06-14T09:53:21;3.70;;;1.40;;
49730;SDS011;35622;52.008;5.426;2023-06-14T09:55:49;1.80;;;1.42;;
49730;SDS011;35622;52.008;5.426;2023-06-14T09:58:19;2.55;;;1.40;;
49730;SDS011;35622;52.008;5.426;2023-06-14T10:00:48;2.47;;;1.50;;
49730;SDS011;35622;52.008;5.426;2023-06-14T10:03:20;4.05;;;1.80;;
49730;SDS011;35622;52.008;5.426;2023-06-14T10:05:50;2.10;;;1.50;;
49730;SDS011;35622;52.008;5.426;2023-06-14T10:08:17;2.58;;;1.50;;
49730;SDS011;35622;52.008;5.426;2023-06-14T10:10:45;2.60;;;1.30;;
49730;SDS011;35622;52.008;5.426;2023-06-14T10:13:11;1.58;;;1.35;;
49730;SDS011;35622;52.008;5.426;2023-06-14T10:18:14;5.53;;;1.58;;
49730;SDS011;35622;52.008;5.426;2023-06-14T10:20:53;1.83;;;1.50;;
49730;SDS011;35622;52.008;5.426;2023-06-14T10:23:29;2.85;;;1.50;;
49730;SDS011;35622;52.008;5.426;2023-06-14T10:25:57;2.08;;;1.40;;
49730;SDS011;35622;52.008;5.426;2023-06-14T10:28:24;3.42;;;1.50;;
49730;SDS011;35622;52.008;5.426;2023-06-14T10:33:30;1.42;;;1.23;;
49730;SDS011;35622;52.008;5.426;2023-06-14T10:38:56;1.75;;;1.42;;
49730;SDS011;35622;52.008;5.426;2023-06-14T10:41:22;2.25;;;1.40;;
49730;SDS011;35622;52.008;5.426;2023-06-14T10:43:50;2.10;;;1.63;;
49730;SDS011;35622;52.008;5.426;2023-06-14T10:46:19;3.13;;;1.60;;
49730;SDS011;35622;52.008;5.426;2023-06-14T10:48:48;3.58;;;1.50;;
49730;SDS011;35622;52.008;5.426;2023-06-14T10:51:17;1.75;;;1.52;;
49730;SDS011;35622;52.008;5.426;2023-06-14T10:53:48;2.65;;;1.30;;
49730;SDS011;35622;52.008;5.426;2023-06-14T10:56:23;2.58;;;1.40;;
49730;SDS011;35622;52.008;5.426;2023-06-14T10:58:50;2.63;;;1.50;;
49730;SDS011;35622;52.008;5.426;2023-06-14T11:01:18;2.00;;;1.40;;
49730;SDS011;35622;52.008;5.426;2023-06-14T11:03:56;2.00;;;1.40;;
49730;SDS011;35622;52.008;5.426;2023-06-14T11:06:30;2.45;;;1.38;;
49730;SDS011;35622;52.008;5.426;2023-06-14T11:09:21;2.38;;;1.50;;
49730;SDS011;35622;52.008;5.426;2023-06-14T11:11:53;3.08;;;1.50;;
49730;SDS011;35622;52.008;5.426;2023-06-14T11:14:20;3.42;;;1.50;;
49730;SDS011;35622;52.008;5.426;2023-06-14T11:16:49;2.33;;;1.40;;
49730;SDS011;35622;52.008;5.426;2023-06-14T11:19:15;3.05;;;1.50;;
49730;SDS011;35622;52.008;5.426;2023-06-14T11:21:42;4.13;;;1.52;;
49730;SDS011;35622;52.008;5.426;2023-06-14T11:24:11;2.75;;;1.50;;
49730;SDS011;35622;52.008;5.426;2023-06-14T11:26:37;2.22;;;1.30;;
49730;SDS011;35622;52.008;5.426;2023-06-14T11:29:03;1.50;;;1.30;;
49730;SDS011;35622;52.008;5.426;2023-06-14T11:31:29;1.45;;;1.30;;
49730;SDS011;35622;52.008;5.426;2023-06-14T11:33:59;1.90;;;1.48;;
49730;SDS011;35622;52.008;5.426;2023-06-14T11:36:26;1.92;;;1.40;;
49730;SDS011;35622;52.008;5.426;2023-06-14T11:39:00;3.25;;;1.60;;
49730;SDS011;35622;52.008;5.426;2023-06-14T11:41:25;2.17;;;1.50;;
49730;SDS011;35622;52.008;5.426;2023-06-14T11:43:56;3.72;;;1.55;;
49730;SDS011;35622;52.008;5.426;2023-06-14T11:46:23;1.70;;;1.60;;
49730;SDS011;35622;52.008;5.426;2023-06-14T11:48:50;2.38;;;1.70;;
49730;SDS011;35622;52.008;5.426;2023-06-14T11:51:17;1.75;;;1.40;;
49730;SDS011;35622;52.008;5.426;2023-06-14T11:53:44;1.90;;;1.70;;
49730;SDS011;35622;52.008;5.426;2023-06-14T11:56:10;3.25;;;1.48;;
49730;SDS011;35622;52.008;5.426;2023-06-14T11:58:36;2.58;;;1.60;;
49730;SDS011;35622;52.008;5.426;2023-06-14T12:01:05;2.15;;;1.63;;
49730;SDS011;35622;52.008;5.426;2023-06-14T12:03:31;2.67;;;1.50;;
49730;SDS011;35622;52.008;5.426;2023-06-14T12:06:04;1.60;;;1.50;;
49730;SDS011;35622;52.008;5.426;2023-06-14T12:08:35;3.28;;;1.58;;
49730;SDS011;35622;52.008;5.426;2023-06-14T12:11:14;2.60;;;1.40;;
49730;SDS011;35622;52.008;5.426;2023-06-14T12:13:43;3.13;;;1.30;;
49730;SDS011;35622;52.008;5.426;2023-06-14T12:16:09;2.47;;;1.17;;
49730;SDS011;35622;52.008;5.426;2023-06-14T12:18:36;2.08;;;1.40;;
49730;SDS011;35622;52.008;5.426;2023-06-14T12:21:06;2.85;;;1.55;;
49730;SDS011;35622;52.008;5.426;2023-06-14T12:24:05;1.58;;;1.48;;
49730;SDS011;35622;52.008;5.426;2023-06-14T12:26:24;2.95;;;1.10;;
49730;SDS011;35622;52.008;5.426;2023-06-14T12:28:51;2.95;;;1.40;;
49730;SDS011;35622;52.008;5.426;2023-06-14T12:31:17;2.75;;;1.20;;
49730;SDS011;35622;52.008;5.426;2023-06-14T12:33:43;2.03;;;1.13;;
49730;SDS011;35622;52.008;5.426;2023-06-14T12:36:10;3.33;;;1.42;;
49730;SDS011;35622;52.008;5.426;2023-06-14T12:38:36;1.50;;;1.40;;
49730;SDS011;35622;52.008;5.426;2023-06-14T12:41:02;3.35;;;1.58;;
49730;SDS011;35622;52.008;5.426;2023-06-14T12:43:28;2.45;;;1.35;;
49730;SDS011;35622;52.008;5.426;2023-06-14T12:45:54;3.97;;;1.42;;
49730;SDS011;35622;52.008;5.426;2023-06-14T12:48:20;1.40;;;1.30;;
49730;SDS011;35622;52.008;5.426;2023-06-14T12:50:46;3.63;;;1.55;;
49730;SDS011;35622;52.008;5.426;2023-06-14T12:53:13;1.48;;;1.38;;
49730;SDS011;35622;52.008;5.426;2023-06-14T12:55:38;2.47;;;1.25;;
49730;SDS011;35622;52.008;5.426;2023-06-14T12:58:04;2.55;;;1.27;;
49730;SDS011;35622;52.008;5.426;2023-06-14T13:00:29;3.50;;;1.50;;
49730;SDS011;35622;52.008;5.426;2023-06-14T13:02:55;2.92;;;1.73;;
49730;SDS011;35622;52.008;5.426;2023-06-14T13:05:21;4.70;;;1.40;;
49730;SDS011;35622;52.008;5.426;2023-06-14T13:07:47;4.97;;;1.50;;
49730;SDS011;35622;52.008;5.426;2023-06-14T13:10:13;4.07;;;1.63;;
49730;SDS011;35622;52.008;5.426;2023-06-14T13:12:38;3.80;;;1.30;;
49730;SDS011;35622;52.008;5.426;2023-06-14T13:15:05;3.53;;;1.30;;
49730;SDS011;35622;52.008;5.426;2023-06-14T13:17:32;2.35;;;1.27;;
49730;SDS011;35622;52.008;5.426;2023-06-14T13:19:58;2.15;;;1.50;;
49730;SDS011;35622;52.008;5.426;2023-06-14T13:22:24;3.40;;;1.55;;
49730;SDS011;35622;52.008;5.426;2023-06-14T13:24:50;3.25;;;1.15;;
49730;SDS011;35622;52.008;5.426;2023-06-14T13:27:15;3.53;;;1.60;;
49730;SDS011;35622;52.008;5.426;2023-06-14T13:29:41;1.90;;;1.40;;
49730;SDS011;35622;52.008;5.426;2023-06-14T13:32:07;3.05;;;1.50;;
49730;SDS011;35622;52.008;5.426;2023-06-14T13:34:32;2.67;;;1.40;;
49730;SDS011;35622;52.008;5.426;2023-06-14T13:36:58;2.22;;;1.10;;
49730;SDS011;35622;52.008;5.426;2023-06-14T13:39:24;3.72;;;1.40;;
49730;SDS011;35622;52.008;5.426;2023-06-14T13:41:50;2.80;;;1.40;;
49730;SDS011;35622;52.008;5.426;2023-06-14T13:44:15;2.25;;;1.40;;
49730;SDS011;35622;52.008;5.426;2023-06-14T13:46:44;3.25;;;1.30;;
49730;SDS011;35622;52.008;5.426;2023-06-14T13:49:09;3.17;;;1.50;;
49730;SDS011;35622;52.008;5.426;2023-06-14T13:51:35;1.50;;;1.30;;
49730;SDS011;35622;52.008;5.426;2023-06-14T13:54:01;1.52;;;1.20;;
49730;SDS011;35622;52.008;5.426;2023-06-14T13:56:27;2.17;;;1.30;;
49730;SDS011;35622;52.008;5.426;2023-06-14T13:58:52;2.28;;;1.27;;
49730;SDS011;35622;52.008;5.426;2023-06-14T14:01:18;1.73;;;1.48;;
49730;SDS011;35622;52.008;5.426;2023-06-14T14:03:48;7.45;;;1.50;;
49730;SDS011;35622;52.008;5.426;2023-06-14T14:06:14;2.00;;;1.38;;
49730;SDS011;35622;52.008;5.426;2023-06-14T14:08:40;2.92;;;1.30;;
49730;SDS011;35622;52.008;5.426;2023-06-14T14:11:06;1.20;;;1.00;;
49730;SDS011;35622;52.008;5.426;2023-06-14T14:13:32;1.35;;;0.98;;
49730;SDS011;35622;52.008;5.426;2023-06-14T14:15:58;1.63;;;1.10;;
49730;SDS011;35622;52.008;5.426;2023-06-14T14:18:24;3.17;;;1.15;;
49730;SDS011;35622;52.008;5.426;2023-06-14T14:20:50;3.03;;;1.00;;
49730;SDS011;35622;52.008;5.426;2023-06-14T14:23:15;1.90;;;1.10;;
49730;SDS011;35622;52.008;5.426;2023-06-14T14:25:41;1.83;;;1.13;;
49730;SDS011;35622;52.008;5.426;2023-06-14T14:28:07;4.70;;;1.30;;
49730;SDS011;35622;52.008;5.426;2023-06-14T14:30:32;1.60;;;1.13;;
49730;SDS011;35622;52.008;5.426;2023-06-14T14:32:58;2.35;;;1.20;;
49730;SDS011;35622;52.008;5.426;2023-06-14T14:35:24;1.65;;;1.10;;
49730;SDS011;35622;52.008;5.426;2023-06-14T14:37:55;4.00;;;1.20;;
49730;SDS011;35622;52.008;5.426;2023-06-14T14:40:21;5.72;;;1.20;;
49730;SDS011;35622;52.008;5.426;2023-06-14T14:42:46;2.70;;;1.10;;
49730;SDS011;35622;52.008;5.426;2023-06-14T14:45:12;1.13;;;0.90;;
49730;SDS011;35622;52.008;5.426;2023-06-14T14:47:38;3.33;;;1.02;;
49730;SDS011;35622;52.008;5.426;2023-06-14T14:50:04;3.70;;;1.10;;
49730;SDS011;35622;52.008;5.426;2023-06-14T14:52:33;1.75;;;1.15;;
49730;SDS011;35622;52.008;5.426;2023-06-14T14:54:59;3.17;;;1.02;;
49730;SDS011;35622;52.008;5.426;2023-06-14T14:57:25;2.20;;;1.20;;
49730;SDS011;35622;52.008;5.426;2023-06-14T14:59:51;1.50;;;1.13;;